sensor_id;sensor_type;location;lat;lon;timestamp;P1;durP1;ratioP1;P2;durP2;ratioP2
11604;SDS011;5858;43.076;25.626;2023-04-19T00:00:43;12.17;;;8.50;;
11604;SDS011;5858;43.076;25.626;2023-04-19T00:03:11;11.27;;;8.60;;
11604;SDS011;5858;43.076;25.626;2023-04-19T00:05:39;12.30;;;8.43;;
11604;SDS011;5858;43.076;25.626;2023-04-19T00:08:06;14.23;;;8.70;;
11604;SDS011;5858;43.076;25.626;2023-04-19T00:10:33;11.63;;;8.37;;
11604;SDS011;5858;43.076;25.626;2023-04-19T00:13:01;11.97;;;7.93;;
11604;SDS011;5858;43.076;25.626;2023-04-19T00:15:28;12.93;;;8.83;;
11604;SDS011;5858;43.076;25.626;2023-04-19T00:17:55;14.77;;;8.27;;
11604;SDS011;5858;43.076;25.626;2023-04-19T00:20:24;13.87;;;8.47;;
11604;SDS011;5858;43.076;25.626;2023-04-19T00:22:51;10.43;;;7.70;;
11604;SDS011;5858;43.076;25.626;2023-04-19T00:25:18;12.77;;;7.40;;
11604;SDS011;5858;43.076;25.626;2023-04-19T00:27:45;11.20;;;7.47;;
11604;SDS011;5858;43.076;25.626;2023-04-19T00:30:12;11.37;;;7.67;;
11604;SDS011;5858;43.076;25.626;2023-04-19T00:32:39;11.23;;;7.43;;
11604;SDS011;5858;43.076;25.626;2023-04-19T00:35:06;9.33;;;7.10;;
11604;SDS011;5858;43.076;25.626;2023-04-19T00:37:35;9.80;;;7.00;;
11604;SDS011;5858;43.076;25.626;2023-04-19T00:40:02;11.30;;;7.37;;
11604;SDS011;5858;43.076;25.626;2023-04-19T00:42:30;10.70;;;7.17;;
11604;SDS011;5858;43.076;25.626;2023-04-19T00:44:57;9.67;;;6.83;;
11604;SDS011;5858;43.076;25.626;2023-04-19T00:47:24;10.87;;;7.53;;
11604;SDS011;5858;43.076;25.626;2023-04-19T00:49:51;7.07;;;6.20;;
11604;SDS011;5858;43.076;25.626;2023-04-19T00:52:18;10.30;;;7.57;;
11604;SDS011;5858;43.076;25.626;2023-04-19T00:54:48;10.03;;;7.00;;
11604;SDS011;5858;43.076;25.626;2023-04-19T00:57:15;10.87;;;7.20;;
11604;SDS011;5858;43.076;25.626;2023-04-19T00:59:43;9.57;;;7.60;;
11604;SDS011;5858;43.076;25.626;2023-04-19T01:02:10;13.00;;;8.40;;
11604;SDS011;5858;43.076;25.626;2023-04-19T01:04:37;12.73;;;7.83;;
11604;SDS011;5858;43.076;25.626;2023-04-19T01:07:04;9.60;;;7.60;;
11604;SDS011;5858;43.076;25.626;2023-04-19T01:09:31;11.83;;;7.90;;
11604;SDS011;5858;43.076;25.626;2023-04-19T01:12:00;12.07;;;8.03;;
11604;SDS011;5858;43.076;25.626;2023-04-19T01:14:27;14.60;;;8.00;;
11604;SDS011;5858;43.076;25.626;2023-04-19T01:16:55;8.40;;;7.03;;
11604;SDS011;5858;43.076;25.626;2023-04-19T01:19:22;10.73;;;7.23;;
11604;SDS011;5858;43.076;25.626;2023-04-19T01:21:49;11.13;;;7.20;;
11604;SDS011;5858;43.076;25.626;2023-04-19T01:24:18;10.40;;;7.13;;
11604;SDS011;5858;43.076;25.626;2023-04-19T01:26:45;9.63;;;7.67;;
11604;SDS011;5858;43.076;25.626;2023-04-19T01:29:12;11.10;;;7.33;;
11604;SDS011;5858;43.076;25.626;2023-04-19T01:31:39;9.37;;;6.63;;
11604;SDS011;5858;43.076;25.626;2023-04-19T01:34:06;10.13;;;7.17;;
11604;SDS011;5858;43.076;25.626;2023-04-19T01:36:33;10.93;;;7.03;;
11604;SDS011;5858;43.076;25.626;2023-04-19T01:39:00;10.03;;;7.07;;
11604;SDS011;5858;43.076;25.626;2023-04-19T01:41:29;8.07;;;6.13;;
11604;SDS011;5858;43.076;25.626;2023-04-19T01:43:56;6.87;;;5.67;;
11604;SDS011;5858;43.076;25.626;2023-04-19T01:46:25;7.10;;;6.40;;
11604;SDS011;5858;43.076;25.626;2023-04-19T01:48:51;11.00;;;6.60;;
11604;SDS011;5858;43.076;25.626;2023-04-19T01:51:18;9.43;;;6.30;;
11604;SDS011;5858;43.076;25.626;2023-04-19T01:53:46;7.90;;;6.17;;
11604;SDS011;5858;43.076;25.626;2023-04-19T01:56:16;8.70;;;7.60;;
11604;SDS011;5858;43.076;25.626;2023-04-19T01:58:44;8.30;;;7.40;;
11604;SDS011;5858;43.076;25.626;2023-04-19T02:01:11;10.50;;;6.70;;
11604;SDS011;5858;43.076;25.626;2023-04-19T02:03:38;8.53;;;6.50;;
11604;SDS011;5858;43.076;25.626;2023-04-19T02:06:08;11.57;;;6.80;;
11604;SDS011;5858;43.076;25.626;2023-04-19T02:08:37;10.17;;;6.37;;
11604;SDS011;5858;43.076;25.626;2023-04-19T02:11:05;8.33;;;6.17;;
11604;SDS011;5858;43.076;25.626;2023-04-19T02:13:32;10.80;;;7.13;;
11604;SDS011;5858;43.076;25.626;2023-04-19T02:16:01;11.10;;;7.10;;
11604;SDS011;5858;43.076;25.626;2023-04-19T02:18:30;6.93;;;6.23;;
11604;SDS011;5858;43.076;25.626;2023-04-19T02:20:57;7.53;;;5.93;;
11604;SDS011;5858;43.076;25.626;2023-04-19T02:23:24;9.63;;;6.77;;
11604;SDS011;5858;43.076;25.626;2023-04-19T02:25:51;7.87;;;6.40;;
11604;SDS011;5858;43.076;25.626;2023-04-19T02:28:19;7.43;;;6.13;;
11604;SDS011;5858;43.076;25.626;2023-04-19T02:30:46;7.60;;;6.40;;
11604;SDS011;5858;43.076;25.626;2023-04-19T02:33:14;11.80;;;7.10;;
11604;SDS011;5858;43.076;25.626;2023-04-19T02:35:41;11.30;;;7.13;;
11604;SDS011;5858;43.076;25.626;2023-04-19T02:38:08;7.87;;;6.43;;
11604;SDS011;5858;43.076;25.626;2023-04-19T02:40:35;9.87;;;7.60;;
11604;SDS011;5858;43.076;25.626;2023-04-19T02:43:02;6.97;;;6.27;;
11604;SDS011;5858;43.076;25.626;2023-04-19T02:45:29;8.70;;;6.67;;
11604;SDS011;5858;43.076;25.626;2023-04-19T02:47:56;9.23;;;6.67;;
11604;SDS011;5858;43.076;25.626;2023-04-19T02:50:25;9.23;;;7.17;;
11604;SDS011;5858;43.076;25.626;2023-04-19T02:52:52;10.17;;;7.00;;
11604;SDS011;5858;43.076;25.626;2023-04-19T02:55:19;12.37;;;7.10;;
11604;SDS011;5858;43.076;25.626;2023-04-19T02:57:46;8.13;;;6.67;;
11604;SDS011;5858;43.076;25.626;2023-04-19T03:00:14;9.60;;;6.93;;
11604;SDS011;5858;43.076;25.626;2023-04-19T03:02:43;8.87;;;6.33;;
11604;SDS011;5858;43.076;25.626;2023-04-19T03:05:10;8.67;;;6.47;;
11604;SDS011;5858;43.076;25.626;2023-04-19T03:07:38;12.17;;;6.67;;
11604;SDS011;5858;43.076;25.626;2023-04-19T03:10:05;9.37;;;6.47;;
11604;SDS011;5858;43.076;25.626;2023-04-19T03:12:33;7.73;;;6.17;;
11604;SDS011;5858;43.076;25.626;2023-04-19T03:15:00;10.43;;;7.10;;
11604;SDS011;5858;43.076;25.626;2023-04-19T03:17:27;8.90;;;6.83;;
11604;SDS011;5858;43.076;25.626;2023-04-19T03:19:54;9.33;;;7.50;;
11604;SDS011;5858;43.076;25.626;2023-04-19T03:22:21;12.63;;;7.50;;
11604;SDS011;5858;43.076;25.626;2023-04-19T03:24:50;10.87;;;7.17;;
11604;SDS011;5858;43.076;25.626;2023-04-19T03:27:17;11.40;;;7.43;;
11604;SDS011;5858;43.076;25.626;2023-04-19T03:29:44;10.63;;;7.10;;
11604;SDS011;5858;43.076;25.626;2023-04-19T03:32:11;11.43;;;7.63;;
11604;SDS011;5858;43.076;25.626;2023-04-19T03:34:38;10.47;;;7.07;;
11604;SDS011;5858;43.076;25.626;2023-04-19T03:37:05;8.23;;;6.67;;
11604;SDS011;5858;43.076;25.626;2023-04-19T03:39:32;6.20;;;5.60;;
11604;SDS011;5858;43.076;25.626;2023-04-19T03:42:00;6.20;;;5.60;;
11604;SDS011;5858;43.076;25.626;2023-04-19T03:44:29;9.13;;;6.20;;
11604;SDS011;5858;43.076;25.626;2023-04-19T03:46:57;10.33;;;5.77;;
11604;SDS011;5858;43.076;25.626;2023-04-19T03:49:24;9.20;;;6.67;;
11604;SDS011;5858;43.076;25.626;2023-04-19T03:51:51;6.60;;;5.93;;
11604;SDS011;5858;43.076;25.626;2023-04-19T03:54:18;8.57;;;5.43;;
11604;SDS011;5858;43.076;25.626;2023-04-19T03:56:45;9.07;;;5.33;;
11604;SDS011;5858;43.076;25.626;2023-04-19T03:59:13;6.60;;;4.87;;
11604;SDS011;5858;43.076;25.626;2023-04-19T04:01:40;5.97;;;5.33;;
11604;SDS011;5858;43.076;25.626;2023-04-19T04:04:07;7.23;;;5.00;;
11604;SDS011;5858;43.076;25.626;2023-04-19T04:06:34;6.47;;;5.43;;
11604;SDS011;5858;43.076;25.626;2023-04-19T04:09:01;6.93;;;5.60;;
11604;SDS011;5858;43.076;25.626;2023-04-19T04:11:28;6.87;;;5.10;;
11604;SDS011;5858;43.076;25.626;2023-04-19T04:13:55;7.63;;;5.17;;
11604;SDS011;5858;43.076;25.626;2023-04-19T04:16:24;7.67;;;5.60;;
11604;SDS011;5858;43.076;25.626;2023-04-19T04:18:51;6.47;;;4.60;;
11604;SDS011;5858;43.076;25.626;2023-04-19T04:21:18;5.63;;;5.13;;
11604;SDS011;5858;43.076;25.626;2023-04-19T04:23:45;6.43;;;5.17;;
11604;SDS011;5858;43.076;25.626;2023-04-19T04:26:14;5.80;;;5.30;;
11604;SDS011;5858;43.076;25.626;2023-04-19T04:28:41;6.07;;;5.47;;
11604;SDS011;5858;43.076;25.626;2023-04-19T04:31:08;6.50;;;4.77;;
11604;SDS011;5858;43.076;25.626;2023-04-19T04:33:38;5.67;;;5.07;;
11604;SDS011;5858;43.076;25.626;2023-04-19T04:36:06;6.87;;;5.40;;
11604;SDS011;5858;43.076;25.626;2023-04-19T04:38:36;5.40;;;4.90;;
11604;SDS011;5858;43.076;25.626;2023-04-19T04:41:03;5.90;;;5.30;;
11604;SDS011;5858;43.076;25.626;2023-04-19T04:43:30;6.13;;;5.30;;
11604;SDS011;5858;43.076;25.626;2023-04-19T04:45:57;5.83;;;5.03;;
11604;SDS011;5858;43.076;25.626;2023-04-19T04:48:30;6.43;;;4.80;;
11604;SDS011;5858;43.076;25.626;2023-04-19T04:50:59;5.97;;;5.00;;
11604;SDS011;5858;43.076;25.626;2023-04-19T04:53:26;7.47;;;5.70;;
11604;SDS011;5858;43.076;25.626;2023-04-19T04:55:54;7.57;;;6.43;;
11604;SDS011;5858;43.076;25.626;2023-04-19T04:58:21;6.10;;;5.50;;
11604;SDS011;5858;43.076;25.626;2023-04-19T05:00:48;6.50;;;5.90;;
11604;SDS011;5858;43.076;25.626;2023-04-19T05:03:15;6.33;;;5.53;;
11604;SDS011;5858;43.076;25.626;2023-04-19T05:05:44;7.13;;;5.97;;
11604;SDS011;5858;43.076;25.626;2023-04-19T05:08:13;10.60;;;7.07;;
11604;SDS011;5858;43.076;25.626;2023-04-19T05:10:43;7.07;;;5.87;;
11604;SDS011;5858;43.076;25.626;2023-04-19T05:13:10;7.00;;;6.30;;
11604;SDS011;5858;43.076;25.626;2023-04-19T05:15:37;7.77;;;6.53;;
11604;SDS011;5858;43.076;25.626;2023-04-19T05:18:05;7.97;;;5.80;;
11604;SDS011;5858;43.076;25.626;2023-04-19T05:20:37;8.17;;;5.97;;
11604;SDS011;5858;43.076;25.626;2023-04-19T05:23:04;6.63;;;5.57;;
11604;SDS011;5858;43.076;25.626;2023-04-19T05:25:33;6.30;;;5.70;;
11604;SDS011;5858;43.076;25.626;2023-04-19T05:28:00;7.77;;;5.80;;
11604;SDS011;5858;43.076;25.626;2023-04-19T05:30:28;6.77;;;5.93;;
11604;SDS011;5858;43.076;25.626;2023-04-19T05:32:56;6.90;;;6.17;;
11604;SDS011;5858;43.076;25.626;2023-04-19T05:35:26;10.37;;;9.17;;
11604;SDS011;5858;43.076;25.626;2023-04-19T05:37:55;9.53;;;7.87;;
11604;SDS011;5858;43.076;25.626;2023-04-19T05:40:23;6.97;;;5.77;;
11604;SDS011;5858;43.076;25.626;2023-04-19T05:42:51;6.83;;;5.73;;
11604;SDS011;5858;43.076;25.626;2023-04-19T05:45:20;7.07;;;6.37;;
11604;SDS011;5858;43.076;25.626;2023-04-19T05:47:49;6.90;;;6.17;;
11604;SDS011;5858;43.076;25.626;2023-04-19T05:50:16;6.23;;;5.20;;
11604;SDS011;5858;43.076;25.626;2023-04-19T05:52:44;7.70;;;6.27;;
11604;SDS011;5858;43.076;25.626;2023-04-19T05:55:11;6.73;;;6.07;;
11604;SDS011;5858;43.076;25.626;2023-04-19T05:57:39;6.17;;;5.50;;
11604;SDS011;5858;43.076;25.626;2023-04-19T06:00:10;7.13;;;5.87;;
11604;SDS011;5858;43.076;25.626;2023-04-19T06:02:37;5.93;;;5.33;;
11604;SDS011;5858;43.076;25.626;2023-04-19T06:05:05;5.87;;;4.90;;
11604;SDS011;5858;43.076;25.626;2023-04-19T06:07:33;5.90;;;5.20;;
11604;SDS011;5858;43.076;25.626;2023-04-19T06:10:00;7.53;;;5.70;;
11604;SDS011;5858;43.076;25.626;2023-04-19T06:12:27;7.57;;;6.10;;
11604;SDS011;5858;43.076;25.626;2023-04-19T06:14:54;6.63;;;5.93;;
11604;SDS011;5858;43.076;25.626;2023-04-19T06:17:23;6.83;;;6.23;;
11604;SDS011;5858;43.076;25.626;2023-04-19T06:19:50;9.83;;;6.30;;
11604;SDS011;5858;43.076;25.626;2023-04-19T06:22:17;9.13;;;7.77;;
11604;SDS011;5858;43.076;25.626;2023-04-19T06:24:44;9.30;;;7.23;;
11604;SDS011;5858;43.076;25.626;2023-04-19T06:27:14;8.47;;;7.67;;
11604;SDS011;5858;43.076;25.626;2023-04-19T06:29:42;10.10;;;8.47;;
11604;SDS011;5858;43.076;25.626;2023-04-19T06:32:11;8.70;;;7.40;;
11604;SDS011;5858;43.076;25.626;2023-04-19T06:34:43;8.73;;;7.60;;
11604;SDS011;5858;43.076;25.626;2023-04-19T06:37:10;10.13;;;8.40;;
11604;SDS011;5858;43.076;25.626;2023-04-19T06:39:37;10.97;;;7.53;;
11604;SDS011;5858;43.076;25.626;2023-04-19T06:42:04;9.77;;;7.97;;
11604;SDS011;5858;43.076;25.626;2023-04-19T06:44:31;9.87;;;7.80;;
11604;SDS011;5858;43.076;25.626;2023-04-19T06:46:58;9.40;;;7.87;;
11604;SDS011;5858;43.076;25.626;2023-04-19T06:49:25;8.60;;;7.40;;
11604;SDS011;5858;43.076;25.626;2023-04-19T06:51:57;8.53;;;7.40;;
11604;SDS011;5858;43.076;25.626;2023-04-19T06:54:24;7.73;;;6.17;;
11604;SDS011;5858;43.076;25.626;2023-04-19T06:57:00;7.27;;;6.50;;
11604;SDS011;5858;43.076;25.626;2023-04-19T06:59:30;8.13;;;7.30;;
11604;SDS011;5858;43.076;25.626;2023-04-19T07:01:57;8.50;;;6.97;;
11604;SDS011;5858;43.076;25.626;2023-04-19T07:04:25;9.57;;;8.10;;
11604;SDS011;5858;43.076;25.626;2023-04-19T07:06:53;11.70;;;9.00;;
11604;SDS011;5858;43.076;25.626;2023-04-19T07:09:20;9.50;;;7.70;;
11604;SDS011;5858;43.076;25.626;2023-04-19T07:11:48;8.27;;;6.80;;
11604;SDS011;5858;43.076;25.626;2023-04-19T07:14:15;8.20;;;6.90;;
11604;SDS011;5858;43.076;25.626;2023-04-19T07:16:43;7.67;;;5.97;;
11604;SDS011;5858;43.076;25.626;2023-04-19T07:19:10;5.77;;;5.10;;
11604;SDS011;5858;43.076;25.626;2023-04-19T07:21:38;6.50;;;5.90;;
11604;SDS011;5858;43.076;25.626;2023-04-19T07:24:07;6.90;;;6.13;;
11604;SDS011;5858;43.076;25.626;2023-04-19T07:26:34;7.23;;;5.97;;
11604;SDS011;5858;43.076;25.626;2023-04-19T07:29:01;7.70;;;5.73;;
11604;SDS011;5858;43.076;25.626;2023-04-19T07:31:28;5.60;;;5.03;;
11604;SDS011;5858;43.076;25.626;2023-04-19T07:33:55;6.00;;;5.40;;
11604;SDS011;5858;43.076;25.626;2023-04-19T07:36:23;5.60;;;5.10;;
11604;SDS011;5858;43.076;25.626;2023-04-19T07:38:50;7.67;;;6.07;;
11604;SDS011;5858;43.076;25.626;2023-04-19T07:41:19;7.37;;;6.37;;
11604;SDS011;5858;43.076;25.626;2023-04-19T07:43:46;7.93;;;6.23;;
11604;SDS011;5858;43.076;25.626;2023-04-19T07:46:13;6.93;;;6.23;;
11604;SDS011;5858;43.076;25.626;2023-04-19T07:48:43;9.03;;;7.00;;
11604;SDS011;5858;43.076;25.626;2023-04-19T07:51:20;7.97;;;7.10;;
11604;SDS011;5858;43.076;25.626;2023-04-19T07:53:54;16.70;;;13.53;;
11604;SDS011;5858;43.076;25.626;2023-04-19T07:56:22;13.27;;;10.20;;
11604;SDS011;5858;43.076;25.626;2023-04-19T07:58:50;13.43;;;9.23;;
11604;SDS011;5858;43.076;25.626;2023-04-19T08:01:17;8.20;;;7.07;;
11604;SDS011;5858;43.076;25.626;2023-04-19T08:03:45;7.13;;;6.43;;
11604;SDS011;5858;43.076;25.626;2023-04-19T08:06:15;9.77;;;6.97;;
11604;SDS011;5858;43.076;25.626;2023-04-19T08:08:43;11.67;;;7.63;;
11604;SDS011;5858;43.076;25.626;2023-04-19T08:11:10;6.77;;;5.73;;
11604;SDS011;5858;43.076;25.626;2023-04-19T08:13:39;6.87;;;5.97;;
11604;SDS011;5858;43.076;25.626;2023-04-19T08:16:06;5.67;;;4.80;;
11604;SDS011;5858;43.076;25.626;2023-04-19T08:18:34;5.63;;;4.90;;
11604;SDS011;5858;43.076;25.626;2023-04-19T08:21:10;6.10;;;4.77;;
11604;SDS011;5858;43.076;25.626;2023-04-19T08:23:37;6.13;;;5.20;;
11604;SDS011;5858;43.076;25.626;2023-04-19T08:26:04;8.27;;;5.27;;
11604;SDS011;5858;43.076;25.626;2023-04-19T08:28:35;6.77;;;4.90;;
11604;SDS011;5858;43.076;25.626;2023-04-19T08:31:06;12.97;;;5.20;;
11604;SDS011;5858;43.076;25.626;2023-04-19T08:33:34;9.27;;;6.00;;
11604;SDS011;5858;43.076;25.626;2023-04-19T08:36:01;7.47;;;6.00;;
11604;SDS011;5858;43.076;25.626;2023-04-19T08:38:29;9.20;;;6.00;;
11604;SDS011;5858;43.076;25.626;2023-04-19T08:40:56;9.47;;;6.67;;
11604;SDS011;5858;43.076;25.626;2023-04-19T08:43:24;7.07;;;6.37;;
11604;SDS011;5858;43.076;25.626;2023-04-19T08:45:52;8.90;;;7.23;;
11604;SDS011;5858;43.076;25.626;2023-04-19T08:48:23;11.27;;;7.93;;
11604;SDS011;5858;43.076;25.626;2023-04-19T08:50:52;12.83;;;8.03;;
11604;SDS011;5858;43.076;25.626;2023-04-19T08:53:21;10.80;;;5.83;;
11604;SDS011;5858;43.076;25.626;2023-04-19T08:55:49;5.63;;;5.03;;
11604;SDS011;5858;43.076;25.626;2023-04-19T08:58:18;8.10;;;5.20;;
11604;SDS011;5858;43.076;25.626;2023-04-19T09:00:45;5.53;;;5.03;;
11604;SDS011;5858;43.076;25.626;2023-04-19T09:03:12;8.80;;;6.03;;
11604;SDS011;5858;43.076;25.626;2023-04-19T09:05:41;6.07;;;5.47;;
11604;SDS011;5858;43.076;25.626;2023-04-19T09:08:21;8.30;;;5.40;;
11604;SDS011;5858;43.076;25.626;2023-04-19T09:10:54;10.37;;;6.67;;
11604;SDS011;5858;43.076;25.626;2023-04-19T09:13:22;5.87;;;5.23;;
11604;SDS011;5858;43.076;25.626;2023-04-19T09:15:50;7.30;;;5.33;;
11604;SDS011;5858;43.076;25.626;2023-04-19T09:18:23;12.00;;;6.17;;
11604;SDS011;5858;43.076;25.626;2023-04-19T09:20:52;8.57;;;5.43;;
11604;SDS011;5858;43.076;25.626;2023-04-19T09:23:22;13.00;;;7.43;;
11604;SDS011;5858;43.076;25.626;2023-04-19T09:25:51;5.07;;;4.57;;
11604;SDS011;5858;43.076;25.626;2023-04-19T09:28:20;6.60;;;4.80;;
11604;SDS011;5858;43.076;25.626;2023-04-19T09:30:47;5.20;;;4.67;;
11604;SDS011;5858;43.076;25.626;2023-04-19T09:33:23;5.47;;;4.50;;
11604;SDS011;5858;43.076;25.626;2023-04-19T09:35:59;6.23;;;5.00;;
11604;SDS011;5858;43.076;25.626;2023-04-19T09:38:30;6.53;;;5.27;;
11604;SDS011;5858;43.076;25.626;2023-04-19T09:41:17;6.97;;;4.67;;
11604;SDS011;5858;43.076;25.626;2023-04-19T09:43:45;7.73;;;5.23;;
11604;SDS011;5858;43.076;25.626;2023-04-19T09:49:16;5.67;;;4.30;;
11604;SDS011;5858;43.076;25.626;2023-04-19T09:51:47;6.83;;;4.57;;
11604;SDS011;5858;43.076;25.626;2023-04-19T09:54:18;4.90;;;4.20;;
11604;SDS011;5858;43.076;25.626;2023-04-19T09:56:47;9.63;;;4.20;;
11604;SDS011;5858;43.076;25.626;2023-04-19T09:59:14;7.55;;;4.63;;
11604;SDS011;5858;43.076;25.626;2023-04-19T10:01:43;6.28;;;4.70;;
11604;SDS011;5858;43.076;25.626;2023-04-19T10:04:12;5.35;;;4.63;;
11604;SDS011;5858;43.076;25.626;2023-04-19T10:06:47;5.22;;;4.70;;
11604;SDS011;5858;43.076;25.626;2023-04-19T10:09:16;6.93;;;4.60;;
11604;SDS011;5858;43.076;25.626;2023-04-19T10:11:46;5.70;;;4.93;;
11604;SDS011;5858;43.076;25.626;2023-04-19T10:14:15;5.80;;;4.90;;
11604;SDS011;5858;43.076;25.626;2023-04-19T10:16:42;7.23;;;4.97;;
11604;SDS011;5858;43.076;25.626;2023-04-19T10:19:10;5.70;;;4.60;;
11604;SDS011;5858;43.076;25.626;2023-04-19T10:21:38;7.53;;;4.70;;
11604;SDS011;5858;43.076;25.626;2023-04-19T10:24:09;8.33;;;5.23;;
11604;SDS011;5858;43.076;25.626;2023-04-19T10:29:53;4.43;;;3.83;;
11604;SDS011;5858;43.076;25.626;2023-04-19T10:32:24;6.30;;;3.90;;
11604;SDS011;5858;43.076;25.626;2023-04-19T10:34:53;6.77;;;3.87;;
11604;SDS011;5858;43.076;25.626;2023-04-19T10:37:23;5.20;;;4.30;;
11604;SDS011;5858;43.076;25.626;2023-04-19T10:39:55;7.77;;;4.13;;
11604;SDS011;5858;43.076;25.626;2023-04-19T10:45:49;3.70;;;3.07;;
11604;SDS011;5858;43.076;25.626;2023-04-19T10:48:30;4.87;;;3.10;;
11604;SDS011;5858;43.076;25.626;2023-04-19T10:51:14;3.80;;;3.20;;
11604;SDS011;5858;43.076;25.626;2023-04-19T10:53:44;8.17;;;3.40;;
11604;SDS011;5858;43.076;25.626;2023-04-19T10:56:22;3.30;;;2.87;;
11604;SDS011;5858;43.076;25.626;2023-04-19T10:59:28;4.03;;;3.07;;
11604;SDS011;5858;43.076;25.626;2023-04-19T11:02:01;4.75;;;3.20;;
11604;SDS011;5858;43.076;25.626;2023-04-19T11:07:37;6.03;;;3.47;;
11604;SDS011;5858;43.076;25.626;2023-04-19T11:10:09;4.90;;;3.57;;
11604;SDS011;5858;43.076;25.626;2023-04-19T11:12:43;6.17;;;3.30;;
11604;SDS011;5858;43.076;25.626;2023-04-19T11:15:12;7.77;;;3.13;;
11604;SDS011;5858;43.076;25.626;2023-04-19T11:17:39;8.07;;;3.20;;
11604;SDS011;5858;43.076;25.626;2023-04-19T11:20:07;3.35;;;3.05;;
11604;SDS011;5858;43.076;25.626;2023-04-19T11:22:44;5.50;;;3.80;;
11604;SDS011;5858;43.076;25.626;2023-04-19T11:25:15;3.72;;;3.35;;
11604;SDS011;5858;43.076;25.626;2023-04-19T11:27:46;4.70;;;3.08;;
11604;SDS011;5858;43.076;25.626;2023-04-19T11:30:15;3.08;;;2.78;;
11604;SDS011;5858;43.076;25.626;2023-04-19T11:32:52;4.70;;;3.05;;
11604;SDS011;5858;43.076;25.626;2023-04-19T11:35:30;3.97;;;3.10;;
11604;SDS011;5858;43.076;25.626;2023-04-19T11:37:58;5.63;;;2.95;;
11604;SDS011;5858;43.076;25.626;2023-04-19T11:40:36;5.03;;;3.10;;
11604;SDS011;5858;43.076;25.626;2023-04-19T11:43:11;3.70;;;3.20;;
11604;SDS011;5858;43.076;25.626;2023-04-19T11:45:41;4.30;;;2.70;;
11604;SDS011;5858;43.076;25.626;2023-04-19T11:48:12;6.47;;;3.20;;
11604;SDS011;5858;43.076;25.626;2023-04-19T11:50:40;3.33;;;2.83;;
11604;SDS011;5858;43.076;25.626;2023-04-19T11:53:12;5.80;;;3.00;;
11604;SDS011;5858;43.076;25.626;2023-04-19T11:55:41;4.10;;;3.20;;
11604;SDS011;5858;43.076;25.626;2023-04-19T11:58:23;3.20;;;2.75;;
11604;SDS011;5858;43.076;25.626;2023-04-19T12:00:53;3.50;;;2.90;;
11604;SDS011;5858;43.076;25.626;2023-04-19T12:03:20;3.75;;;3.35;;
11604;SDS011;5858;43.076;25.626;2023-04-19T12:05:52;5.43;;;3.47;;
11604;SDS011;5858;43.076;25.626;2023-04-19T12:08:28;3.05;;;2.38;;
11604;SDS011;5858;43.076;25.626;2023-04-19T12:10:57;7.18;;;4.43;;
11604;SDS011;5858;43.076;25.626;2023-04-19T12:13:27;4.80;;;2.88;;
11604;SDS011;5858;43.076;25.626;2023-04-19T12:15:55;5.30;;;2.83;;
11604;SDS011;5858;43.076;25.626;2023-04-19T12:18:27;5.95;;;2.92;;
11604;SDS011;5858;43.076;25.626;2023-04-19T12:21:09;5.45;;;2.60;;
11604;SDS011;5858;43.076;25.626;2023-04-19T12:23:37;4.55;;;3.20;;
11604;SDS011;5858;43.076;25.626;2023-04-19T12:26:04;7.43;;;3.22;;
11604;SDS011;5858;43.076;25.626;2023-04-19T12:28:33;4.57;;;2.90;;
11604;SDS011;5858;43.076;25.626;2023-04-19T12:31:00;4.32;;;2.88;;
11604;SDS011;5858;43.076;25.626;2023-04-19T12:33:28;8.55;;;3.40;;
11604;SDS011;5858;43.076;25.626;2023-04-19T12:35:55;8.00;;;3.33;;
11604;SDS011;5858;43.076;25.626;2023-04-19T12:38:22;6.95;;;3.70;;
11604;SDS011;5858;43.076;25.626;2023-04-19T12:40:49;9.68;;;3.58;;
11604;SDS011;5858;43.076;25.626;2023-04-19T12:43:16;4.22;;;3.35;;
11604;SDS011;5858;43.076;25.626;2023-04-19T12:45:46;8.88;;;4.18;;
11604;SDS011;5858;43.076;25.626;2023-04-19T12:48:13;3.95;;;3.10;;
11604;SDS011;5858;43.076;25.626;2023-04-19T12:50:40;5.70;;;2.85;;
11604;SDS011;5858;43.076;25.626;2023-04-19T12:53:11;5.60;;;3.30;;
11604;SDS011;5858;43.076;25.626;2023-04-19T12:55:39;7.38;;;3.40;;
11604;SDS011;5858;43.076;25.626;2023-04-19T12:58:11;7.38;;;3.17;;
11604;SDS011;5858;43.076;25.626;2023-04-19T13:00:41;6.20;;;3.63;;
11604;SDS011;5858;43.076;25.626;2023-04-19T13:03:10;5.68;;;2.88;;
11604;SDS011;5858;43.076;25.626;2023-04-19T13:05:37;4.38;;;3.28;;
11604;SDS011;5858;43.076;25.626;2023-04-19T13:08:05;6.13;;;3.88;;
11604;SDS011;5858;43.076;25.626;2023-04-19T13:10:32;7.60;;;3.05;;
11604;SDS011;5858;43.076;25.626;2023-04-19T13:12:59;3.58;;;2.83;;
11604;SDS011;5858;43.076;25.626;2023-04-19T13:15:27;7.00;;;3.03;;
11604;SDS011;5858;43.076;25.626;2023-04-19T13:17:54;6.15;;;2.53;;
11604;SDS011;5858;43.076;25.626;2023-04-19T13:20:24;4.32;;;2.90;;
11604;SDS011;5858;43.076;25.626;2023-04-19T13:22:51;7.32;;;2.67;;
11604;SDS011;5858;43.076;25.626;2023-04-19T13:25:19;5.53;;;3.00;;
11604;SDS011;5858;43.076;25.626;2023-04-19T13:27:46;4.50;;;2.92;;
11604;SDS011;5858;43.076;25.626;2023-04-19T13:30:14;4.97;;;3.10;;
11604;SDS011;5858;43.076;25.626;2023-04-19T13:32:41;3.88;;;3.22;;
11604;SDS011;5858;43.076;25.626;2023-04-19T13:35:09;4.60;;;3.35;;
11604;SDS011;5858;43.076;25.626;2023-04-19T13:37:38;5.95;;;3.60;;
11604;SDS011;5858;43.076;25.626;2023-04-19T13:40:08;7.20;;;3.00;;
11604;SDS011;5858;43.076;25.626;2023-04-19T13:42:36;5.65;;;3.40;;
11604;SDS011;5858;43.076;25.626;2023-04-19T13:45:03;4.82;;;3.00;;
11604;SDS011;5858;43.076;25.626;2023-04-19T13:47:31;4.32;;;3.03;;
11604;SDS011;5858;43.076;25.626;2023-04-19T13:49:58;5.50;;;3.30;;
11604;SDS011;5858;43.076;25.626;2023-04-19T13:52:25;4.20;;;2.60;;
11604;SDS011;5858;43.076;25.626;2023-04-19T13:55:05;5.93;;;3.05;;
11604;SDS011;5858;43.076;25.626;2023-04-19T13:57:33;3.10;;;2.40;;
11604;SDS011;5858;43.076;25.626;2023-04-19T14:00:00;4.68;;;2.45;;
11604;SDS011;5858;43.076;25.626;2023-04-19T14:02:28;4.30;;;2.85;;
11604;SDS011;5858;43.076;25.626;2023-04-19T14:04:55;6.18;;;3.15;;
11604;SDS011;5858;43.076;25.626;2023-04-19T14:07:23;9.23;;;3.28;;
11604;SDS011;5858;43.076;25.626;2023-04-19T14:09:50;11.95;;;5.45;;
11604;SDS011;5858;43.076;25.626;2023-04-19T14:12:19;4.03;;;2.95;;
11604;SDS011;5858;43.076;25.626;2023-04-19T14:14:46;4.53;;;2.92;;
11604;SDS011;5858;43.076;25.626;2023-04-19T14:17:13;5.53;;;3.28;;
11604;SDS011;5858;43.076;25.626;2023-04-19T14:19:41;4.38;;;3.15;;
11604;SDS011;5858;43.076;25.626;2023-04-19T14:22:08;3.58;;;2.90;;
11604;SDS011;5858;43.076;25.626;2023-04-19T14:24:35;3.20;;;2.58;;
11604;SDS011;5858;43.076;25.626;2023-04-19T14:27:02;5.55;;;2.78;;
11604;SDS011;5858;43.076;25.626;2023-04-19T14:29:31;3.20;;;2.40;;
11604;SDS011;5858;43.076;25.626;2023-04-19T14:31:58;3.43;;;3.13;;
11604;SDS011;5858;43.076;25.626;2023-04-19T14:34:26;4.07;;;3.33;;
11604;SDS011;5858;43.076;25.626;2023-04-19T14:36:54;4.03;;;2.93;;
11604;SDS011;5858;43.076;25.626;2023-04-19T14:39:21;4.00;;;3.23;;
11604;SDS011;5858;43.076;25.626;2023-04-19T14:41:48;8.27;;;4.63;;
11604;SDS011;5858;43.076;25.626;2023-04-19T14:44:15;4.47;;;3.47;;
11604;SDS011;5858;43.076;25.626;2023-04-19T14:46:44;4.73;;;3.43;;
11604;SDS011;5858;43.076;25.626;2023-04-19T14:49:11;4.80;;;3.33;;
11604;SDS011;5858;43.076;25.626;2023-04-19T14:51:41;5.30;;;3.63;;
11604;SDS011;5858;43.076;25.626;2023-04-19T14:54:09;5.73;;;3.50;;
11604;SDS011;5858;43.076;25.626;2023-04-19T14:56:36;4.47;;;3.23;;
11604;SDS011;5858;43.076;25.626;2023-04-19T14:59:21;5.70;;;3.38;;
11604;SDS011;5858;43.076;25.626;2023-04-19T15:01:50;7.63;;;4.10;;
11604;SDS011;5858;43.076;25.626;2023-04-19T15:04:17;7.28;;;3.85;;
11604;SDS011;5858;43.076;25.626;2023-04-19T15:06:44;4.65;;;3.35;;